Pont-y-pwl, United Kingdom
Current Conditions -  °F | °C
As of 8:20 AM on Friday 28 Nov 2014 (Local Time) from EGFF Reporting Station
Overcast Overcast  
Wind Chill: 50°   Ceiling: 1200
Heat Index: 50°   Visibility: 6mi
Dew Point: 46°   Wind: 15mph
Humidity: 87%   Direction: 80°E
Pressure: 29.53"   Gusts: NA
Location:  51.7°N, 3.04°W
Report Text: EGFF 280820Z AUTO 08013KT 9999 OVC012 10/08 Q1000
Loading
Personal Weather Stations






























Interactive Weather Map New forecast layout! Learn more

10-Day Weather Forecast

Advertisements
Track Severe Weather on mobile